sensor_id;sensor_type;location;lat;lon;timestamp;pressure;altitude;pressure_sealevel;temperature;humidity
29909;BME280;36247;51.952;6.146;2022-08-05T00:00:28;101390.16;;;18.92;100.00
29909;BME280;36247;51.952;6.146;2022-08-05T00:02:54;101396.69;;;18.67;100.00
29909;BME280;36247;51.952;6.146;2022-08-05T00:05:20;101406.75;;;18.44;100.00
29909;BME280;36247;51.952;6.146;2022-08-05T00:07:45;101396.78;;;18.55;100.00
29909;BME280;36247;51.952;6.146;2022-08-05T00:10:11;101383.91;;;18.90;100.00
29909;BME280;36247;51.952;6.146;2022-08-05T00:12:37;101374.91;;;18.95;100.00
29909;BME280;36247;51.952;6.146;2022-08-05T00:15:03;101367.75;;;18.94;100.00
29909;BME280;36247;51.952;6.146;2022-08-05T00:17:29;101376.81;;;18.84;100.00
29909;BME280;36247;51.952;6.146;2022-08-05T00:19:54;101374.78;;;19.03;100.00
29909;BME280;36247;51.952;6.146;2022-08-05T00:22:20;101392.97;;;18.78;100.00
29909;BME280;36247;51.952;6.146;2022-08-05T00:24:45;101379.38;;;18.95;100.00
29909;BME280;36247;51.952;6.146;2022-08-05T00:27:11;101374.16;;;18.79;100.00
29909;BME280;36247;51.952;6.146;2022-08-05T00:29:36;101365.25;;;18.77;100.00
29909;BME280;36247;51.952;6.146;2022-08-05T00:32:02;101366.03;;;18.89;100.00
29909;BME280;36247;51.952;6.146;2022-08-05T00:34:28;101370.69;;;18.70;100.00
29909;BME280;36247;51.952;6.146;2022-08-05T00:36:54;101359.97;;;18.70;100.00
29909;BME280;36247;51.952;6.146;2022-08-05T00:39:19;101367.22;;;18.60;100.00
29909;BME280;36247;51.952;6.146;2022-08-05T00:41:45;101360.00;;;18.68;100.00
29909;BME280;36247;51.952;6.146;2022-08-05T00:44:11;101348.34;;;18.71;100.00
29909;BME280;36247;51.952;6.146;2022-08-05T00:46:37;101349.25;;;18.68;100.00
29909;BME280;36247;51.952;6.146;2022-08-05T00:49:03;101354.84;;;18.45;100.00
29909;BME280;36247;51.952;6.146;2022-08-05T00:51:28;101347.78;;;18.36;100.00
29909;BME280;36247;51.952;6.146;2022-08-05T00:53:54;101354.09;;;18.35;100.00
29909;BME280;36247;51.952;6.146;2022-08-05T00:56:19;101363.88;;;18.39;100.00
29909;BME280;36247;51.952;6.146;2022-08-05T00:58:45;101358.53;;;18.36;100.00
29909;BME280;36247;51.952;6.146;2022-08-05T01:01:11;101352.31;;;18.32;100.00
29909;BME280;36247;51.952;6.146;2022-08-05T01:03:40;101352.09;;;18.54;100.00
29909;BME280;36247;51.952;6.146;2022-08-05T01:06:05;101357.69;;;18.32;100.00
29909;BME280;36247;51.952;6.146;2022-08-05T01:08:31;101354.16;;;18.29;100.00
29909;BME280;36247;51.952;6.146;2022-08-05T01:11:01;101353.31;;;18.21;100.00
29909;BME280;36247;51.952;6.146;2022-08-05T01:15:57;101359.41;;;18.38;100.00
29909;BME280;36247;51.952;6.146;2022-08-05T01:18:25;101354.13;;;18.32;100.00
29909;BME280;36247;51.952;6.146;2022-08-05T01:21:01;101349.75;;;18.20;100.00
29909;BME280;36247;51.952;6.146;2022-08-05T01:23:43;101360.38;;;18.31;100.00
29909;BME280;36247;51.952;6.146;2022-08-05T01:26:43;101357.78;;;18.23;100.00
29909;BME280;36247;51.952;6.146;2022-08-05T01:29:43;101353.31;;;18.21;100.00
29909;BME280;36247;51.952;6.146;2022-08-05T01:32:10;101361.50;;;18.07;100.00
29909;BME280;36247;51.952;6.146;2022-08-05T01:34:46;101363.97;;;18.27;100.00
29909;BME280;36247;51.952;6.146;2022-08-05T01:37:21;101370.16;;;18.38;100.00
29909;BME280;36247;51.952;6.146;2022-08-05T01:39:48;101358.59;;;18.30;100.00
29909;BME280;36247;51.952;6.146;2022-08-05T01:42:18;101362.34;;;18.10;100.00
29909;BME280;36247;51.952;6.146;2022-08-05T01:44:45;101375.00;;;17.96;100.00
29909;BME280;36247;51.952;6.146;2022-08-05T01:47:14;101382.78;;;18.24;100.00
29909;BME280;36247;51.952;6.146;2022-08-05T01:49:42;101398.81;;;18.31;100.00
29909;BME280;36247;51.952;6.146;2022-08-05T01:52:10;101403.31;;;18.29;100.00
29909;BME280;36247;51.952;6.146;2022-08-05T01:54:43;101405.13;;;18.29;100.00
29909;BME280;36247;51.952;6.146;2022-08-05T01:57:10;101397.09;;;18.26;100.00
29909;BME280;36247;51.952;6.146;2022-08-05T01:59:39;101414.94;;;18.27;100.00
29909;BME280;36247;51.952;6.146;2022-08-05T02:02:09;101420.34;;;18.22;100.00
29909;BME280;36247;51.952;6.146;2022-08-05T02:04:37;101415.81;;;18.32;100.00
29909;BME280;36247;51.952;6.146;2022-08-05T02:07:04;101400.56;;;18.36;100.00
29909;BME280;36247;51.952;6.146;2022-08-05T02:09:30;101393.63;;;18.13;100.00
29909;BME280;36247;51.952;6.146;2022-08-05T02:12:06;101410.53;;;18.20;100.00
29909;BME280;36247;51.952;6.146;2022-08-05T02:14:37;101414.97;;;18.25;100.00
29909;BME280;36247;51.952;6.146;2022-08-05T02:17:15;101414.09;;;18.22;100.00
29909;BME280;36247;51.952;6.146;2022-08-05T02:19:50;101423.78;;;18.38;100.00
29909;BME280;36247;51.952;6.146;2022-08-05T02:22:32;101424.81;;;18.25;100.00
29909;BME280;36247;51.952;6.146;2022-08-05T02:25:24;101440.84;;;18.29;100.00
29909;BME280;36247;51.952;6.146;2022-08-05T02:27:54;101433.63;;;18.36;100.00
29909;BME280;36247;51.952;6.146;2022-08-05T02:30:21;101444.34;;;18.42;100.00
29909;BME280;36247;51.952;6.146;2022-08-05T02:32:50;101446.34;;;18.15;100.00
29909;BME280;36247;51.952;6.146;2022-08-05T02:35:21;101438.34;;;18.06;100.00
29909;BME280;36247;51.952;6.146;2022-08-05T02:37:49;101434.66;;;18.21;100.00
29909;BME280;36247;51.952;6.146;2022-08-05T02:40:17;101434.56;;;18.33;100.00
29909;BME280;36247;51.952;6.146;2022-08-05T02:42:44;101423.81;;;18.35;100.00
29909;BME280;36247;51.952;6.146;2022-08-05T02:45:11;101420.25;;;18.31;100.00
29909;BME280;36247;51.952;6.146;2022-08-05T02:47:39;101406.91;;;18.25;100.00
29909;BME280;36247;51.952;6.146;2022-08-05T02:50:06;101387.34;;;18.17;100.00
29909;BME280;36247;51.952;6.146;2022-08-05T02:52:33;101392.75;;;18.06;100.00
29909;BME280;36247;51.952;6.146;2022-08-05T02:54:59;101405.22;;;18.15;100.00
29909;BME280;36247;51.952;6.146;2022-08-05T02:57:25;101397.19;;;18.13;100.00
29909;BME280;36247;51.952;6.146;2022-08-05T02:59:52;101402.63;;;18.04;100.00
29909;BME280;36247;51.952;6.146;2022-08-05T03:02:19;101403.50;;;18.05;100.00
29909;BME280;36247;51.952;6.146;2022-08-05T03:04:47;101390.03;;;18.14;100.00
29909;BME280;36247;51.952;6.146;2022-08-05T03:07:14;101377.59;;;18.05;100.00
29909;BME280;36247;51.952;6.146;2022-08-05T03:09:41;101377.59;;;18.05;100.00
29909;BME280;36247;51.952;6.146;2022-08-05T03:12:09;101387.53;;;17.91;100.00
29909;BME280;36247;51.952;6.146;2022-08-05T03:14:52;101383.97;;;17.92;100.00
29909;BME280;36247;51.952;6.146;2022-08-05T03:17:18;101392.88;;;17.92;100.00
29909;BME280;36247;51.952;6.146;2022-08-05T03:19:44;101413.31;;;18.09;100.00
29909;BME280;36247;51.952;6.146;2022-08-05T03:22:09;101412.50;;;18.02;100.00
29909;BME280;36247;51.952;6.146;2022-08-05T03:24:35;101417.91;;;17.87;100.00
29909;BME280;36247;51.952;6.146;2022-08-05T03:27:00;101401.72;;;18.05;100.00
29909;BME280;36247;51.952;6.146;2022-08-05T03:29:26;101396.31;;;18.13;100.00
29909;BME280;36247;51.952;6.146;2022-08-05T03:31:51;101390.09;;;18.05;100.00
29909;BME280;36247;51.952;6.146;2022-08-05T03:34:17;101391.84;;;18.09;100.00
29909;BME280;36247;51.952;6.146;2022-08-05T03:36:44;101389.25;;;18.01;100.00
29909;BME280;36247;51.952;6.146;2022-08-05T03:39:09;101389.25;;;18.01;100.00
29909;BME280;36247;51.952;6.146;2022-08-05T03:41:35;101387.34;;;18.15;100.00
29909;BME280;36247;51.952;6.146;2022-08-05T03:44:00;101390.06;;;18.12;100.00
29909;BME280;36247;51.952;6.146;2022-08-05T03:46:26;101379.28;;;18.19;100.00
29909;BME280;36247;51.952;6.146;2022-08-05T03:48:51;101369.53;;;18.07;100.00
29909;BME280;36247;51.952;6.146;2022-08-05T03:51:44;101368.63;;;18.09;100.00
29909;BME280;36247;51.952;6.146;2022-08-05T03:54:32;101364.19;;;18.05;100.00
29909;BME280;36247;51.952;6.146;2022-08-05T03:57:01;101358.94;;;17.90;100.00
29909;BME280;36247;51.952;6.146;2022-08-05T03:59:40;101351.81;;;17.90;100.00
29909;BME280;36247;51.952;6.146;2022-08-05T04:02:07;101359.00;;;17.79;100.00
29909;BME280;36247;51.952;6.146;2022-08-05T04:04:35;101373.19;;;18.00;100.00
29909;BME280;36247;51.952;6.146;2022-08-05T04:07:01;101382.22;;;17.82;100.00
29909;BME280;36247;51.952;6.146;2022-08-05T04:09:28;101392.84;;;17.98;100.00
29909;BME280;36247;51.952;6.146;2022-08-05T04:11:54;101396.38;;;18.05;100.00
29909;BME280;36247;51.952;6.146;2022-08-05T04:14:20;101397.28;;;18.01;100.00
29909;BME280;36247;51.952;6.146;2022-08-05T04:16:46;101401.81;;;17.96;100.00
29909;BME280;36247;51.952;6.146;2022-08-05T04:19:12;101381.28;;;17.92;100.00
29909;BME280;36247;51.952;6.146;2022-08-05T04:21:39;101375.94;;;17.87;100.00
29909;BME280;36247;51.952;6.146;2022-08-05T04:24:05;101381.25;;;17.95;100.00
29909;BME280;36247;51.952;6.146;2022-08-05T04:26:31;101385.69;;;18.01;100.00
29909;BME280;36247;51.952;6.146;2022-08-05T04:28:56;101374.97;;;18.01;100.00
29909;BME280;36247;51.952;6.146;2022-08-05T04:31:21;101376.75;;;17.97;100.00
29909;BME280;36247;51.952;6.146;2022-08-05T04:33:47;101362.53;;;17.92;100.00
29909;BME280;36247;51.952;6.146;2022-08-05T04:36:13;101360.72;;;17.88;100.00
29909;BME280;36247;51.952;6.146;2022-08-05T04:38:41;101358.16;;;17.74;100.00
29909;BME280;36247;51.952;6.146;2022-08-05T04:41:07;101367.03;;;17.80;100.00
29909;BME280;36247;51.952;6.146;2022-08-05T04:43:33;101373.28;;;17.86;100.00
29909;BME280;36247;51.952;6.146;2022-08-05T04:45:58;101375.06;;;17.84;100.00
29909;BME280;36247;51.952;6.146;2022-08-05T04:48:24;101387.56;;;17.83;100.00
29909;BME280;36247;51.952;6.146;2022-08-05T04:50:49;101393.78;;;17.91;100.00
29909;BME280;36247;51.952;6.146;2022-08-05T04:53:16;101401.84;;;17.84;100.00
29909;BME280;36247;51.952;6.146;2022-08-05T04:55:44;101403.75;;;17.69;100.00
29909;BME280;36247;51.952;6.146;2022-08-05T04:58:12;101411.75;;;17.74;100.00
29909;BME280;36247;51.952;6.146;2022-08-05T05:00:40;101412.66;;;17.73;100.00
29909;BME280;36247;51.952;6.146;2022-08-05T05:03:07;101423.28;;;17.90;100.00
29909;BME280;36247;51.952;6.146;2022-08-05T05:05:33;101434.03;;;17.80;100.00
29909;BME280;36247;51.952;6.146;2022-08-05T05:08:02;101432.22;;;17.92;100.00
29909;BME280;36247;51.952;6.146;2022-08-05T05:10:29;101439.31;;;18.01;100.00
29909;BME280;36247;51.952;6.146;2022-08-05T05:12:56;101437.44;;;18.07;100.00
29909;BME280;36247;51.952;6.146;2022-08-05T05:15:21;101442.00;;;17.88;100.00
29909;BME280;36247;51.952;6.146;2022-08-05T05:17:47;101440.22;;;17.95;100.00
29909;BME280;36247;51.952;6.146;2022-08-05T05:20:12;101441.03;;;18.06;100.00
29909;BME280;36247;51.952;6.146;2022-08-05T05:22:39;101441.88;;;18.14;100.00
29909;BME280;36247;51.952;6.146;2022-08-05T05:25:06;101447.16;;;18.22;100.00
29909;BME280;36247;51.952;6.146;2022-08-05T05:27:32;101439.19;;;18.14;100.00
29909;BME280;36247;51.952;6.146;2022-08-05T05:29:58;101434.75;;;18.10;100.00
29909;BME280;36247;51.952;6.146;2022-08-05T05:32:24;101432.09;;;18.07;100.00
29909;BME280;36247;51.952;6.146;2022-08-05T05:34:49;101436.44;;;18.24;100.00
29909;BME280;36247;51.952;6.146;2022-08-05T05:37:15;101431.00;;;18.31;100.00
29909;BME280;36247;51.952;6.146;2022-08-05T05:39:41;101425.63;;;18.30;100.00
29909;BME280;36247;51.952;6.146;2022-08-05T05:42:07;101426.56;;;18.30;100.00
29909;BME280;36247;51.952;6.146;2022-08-05T05:44:33;101428.28;;;18.38;100.00
29909;BME280;36247;51.952;6.146;2022-08-05T05:46:59;101426.53;;;18.33;100.00
29909;BME280;36247;51.952;6.146;2022-08-05T05:49:25;101428.31;;;18.30;100.00
29909;BME280;36247;51.952;6.146;2022-08-05T05:51:52;101423.72;;;18.46;100.00
29909;BME280;36247;51.952;6.146;2022-08-05T05:54:17;101423.75;;;18.41;100.00
29909;BME280;36247;51.952;6.146;2022-08-05T05:56:44;101424.59;;;18.46;100.00
29909;BME280;36247;51.952;6.146;2022-08-05T05:59:09;101430.94;;;18.39;100.00
29909;BME280;36247;51.952;6.146;2022-08-05T06:01:40;101424.78;;;18.28;100.00
29909;BME280;36247;51.952;6.146;2022-08-05T06:04:09;101427.41;;;18.32;100.00
29909;BME280;36247;51.952;6.146;2022-08-05T06:06:35;101427.25;;;18.49;100.00
29909;BME280;36247;51.952;6.146;2022-08-05T06:09:02;101429.09;;;18.44;100.00
29909;BME280;36247;51.952;6.146;2022-08-05T06:11:28;101434.41;;;18.50;100.00
29909;BME280;36247;51.952;6.146;2022-08-05T06:13:53;101435.44;;;18.34;100.00
29909;BME280;36247;51.952;6.146;2022-08-05T06:16:19;101445.31;;;18.33;100.00
29909;BME280;36247;51.952;6.146;2022-08-05T06:18:44;101452.38;;;18.44;100.00
29909;BME280;36247;51.952;6.146;2022-08-05T06:21:10;101450.63;;;18.37;100.00
29909;BME280;36247;51.952;6.146;2022-08-05T06:23:35;101452.25;;;18.55;100.00
29909;BME280;36247;51.952;6.146;2022-08-05T06:26:00;101454.09;;;18.46;100.00
29909;BME280;36247;51.952;6.146;2022-08-05T06:28:26;101460.28;;;18.58;100.00
29909;BME280;36247;51.952;6.146;2022-08-05T06:30:51;101463.06;;;18.47;100.00
29909;BME280;36247;51.952;6.146;2022-08-05T06:33:17;101456.72;;;18.56;100.00
29909;BME280;36247;51.952;6.146;2022-08-05T06:35:44;101457.59;;;18.56;100.00
29909;BME280;36247;51.952;6.146;2022-08-05T06:38:09;101463.78;;;18.63;100.00
29909;BME280;36247;51.952;6.146;2022-08-05T06:40:35;101472.84;;;18.51;100.00
29909;BME280;36247;51.952;6.146;2022-08-05T06:43:00;101466.47;;;18.64;100.00
29909;BME280;36247;51.952;6.146;2022-08-05T06:45:26;101463.69;;;18.75;100.00
29909;BME280;36247;51.952;6.146;2022-08-05T06:47:51;101466.25;;;18.89;100.00
29909;BME280;36247;51.952;6.146;2022-08-05T06:50:17;101468.97;;;18.88;100.00
29909;BME280;36247;51.952;6.146;2022-08-05T06:52:44;101473.50;;;18.76;100.00
29909;BME280;36247;51.952;6.146;2022-08-05T06:55:09;101474.47;;;18.71;100.00
29909;BME280;36247;51.952;6.146;2022-08-05T06:57:35;101468.97;;;18.83;100.00
29909;BME280;36247;51.952;6.146;2022-08-05T07:00:00;101467.09;;;18.93;100.00
29909;BME280;36247;51.952;6.146;2022-08-05T07:02:27;101465.25;;;18.99;100.00
29909;BME280;36247;51.952;6.146;2022-08-05T07:04:53;101470.03;;;18.68;100.00
29909;BME280;36247;51.952;6.146;2022-08-05T07:07:19;101473.38;;;18.95;100.00
29909;BME280;36247;51.952;6.146;2022-08-05T07:09:44;101471.66;;;18.88;100.00
29909;BME280;36247;51.952;6.146;2022-08-05T07:12:09;101477.81;;;18.99;100.00
29909;BME280;36247;51.952;6.146;2022-08-05T07:14:55;101483.16;;;19.00;100.00
29909;BME280;36247;51.952;6.146;2022-08-05T07:17:39;101492.03;;;19.06;100.00
29909;BME280;36247;51.952;6.146;2022-08-05T07:20:05;101488.50;;;19.02;100.00
29909;BME280;36247;51.952;6.146;2022-08-05T07:22:31;101499.09;;;19.14;100.00
29909;BME280;36247;51.952;6.146;2022-08-05T07:24:57;101489.28;;;19.12;100.00
29909;BME280;36247;51.952;6.146;2022-08-05T07:27:23;101492.84;;;19.14;100.00
29909;BME280;36247;51.952;6.146;2022-08-05T07:29:48;101504.31;;;19.27;100.00
29909;BME280;36247;51.952;6.146;2022-08-05T07:32:14;101517.03;;;19.12;100.00
29909;BME280;36247;51.952;6.146;2022-08-05T07:34:39;101522.47;;;19.03;100.00
29909;BME280;36247;51.952;6.146;2022-08-05T07:37:05;101525.25;;;18.95;100.00
29909;BME280;36247;51.952;6.146;2022-08-05T07:39:30;101521.75;;;18.90;100.00
29909;BME280;36247;51.952;6.146;2022-08-05T07:41:56;101524.28;;;19.04;100.00
29909;BME280;36247;51.952;6.146;2022-08-05T07:44:21;101522.16;;;19.34;100.00
29909;BME280;36247;51.952;6.146;2022-08-05T07:46:47;101531.06;;;19.37;100.00
29909;BME280;36247;51.952;6.146;2022-08-05T07:49:13;101528.22;;;19.53;100.00
29909;BME280;36247;51.952;6.146;2022-08-05T07:51:39;101531.88;;;19.44;100.00
29909;BME280;36247;51.952;6.146;2022-08-05T07:54:05;101525.69;;;19.36;100.00
29909;BME280;36247;51.952;6.146;2022-08-05T07:56:31;101523.66;;;19.56;100.00
29909;BME280;36247;51.952;6.146;2022-08-05T07:58:57;101528.25;;;19.48;100.00
29909;BME280;36247;51.952;6.146;2022-08-05T08:01:22;101518.19;;;19.64;100.00
29909;BME280;36247;51.952;6.146;2022-08-05T08:03:50;101520.97;;;19.56;100.00
29909;BME280;36247;51.952;6.146;2022-08-05T08:06:15;101513.44;;;19.88;100.00
29909;BME280;36247;51.952;6.146;2022-08-05T08:08:41;101522.47;;;20.43;100.00
29909;BME280;36247;51.952;6.146;2022-08-05T08:11:06;101519.81;;;20.41;100.00
29909;BME280;36247;51.952;6.146;2022-08-05T08:13:32;101524.28;;;20.42;100.00
29909;BME280;36247;51.952;6.146;2022-08-05T08:15:57;101534.22;;;20.37;100.00
29909;BME280;36247;51.952;6.146;2022-08-05T08:18:23;101530.06;;;20.16;100.00
29909;BME280;36247;51.952;6.146;2022-08-05T08:20:48;101524.50;;;19.63;100.00
29909;BME280;36247;51.952;6.146;2022-08-05T08:23:15;101519.88;;;19.73;100.00
29909;BME280;36247;51.952;6.146;2022-08-05T08:25:42;101526.56;;;20.11;100.00
29909;BME280;36247;51.952;6.146;2022-08-05T08:28:09;101522.28;;;19.96;100.00
29909;BME280;36247;51.952;6.146;2022-08-05T08:30:35;101527.34;;;20.18;100.00
29909;BME280;36247;51.952;6.146;2022-08-05T08:33:06;101536.34;;;20.15;100.00
29909;BME280;36247;51.952;6.146;2022-08-05T08:35:32;101542.47;;;20.26;100.00
29909;BME280;36247;51.952;6.146;2022-08-05T08:37:57;101541.66;;;20.21;100.00
29909;BME280;36247;51.952;6.146;2022-08-05T08:40:22;101547.16;;;20.12;100.00
29909;BME280;36247;51.952;6.146;2022-08-05T08:42:51;101548.56;;;20.39;100.00
29909;BME280;36247;51.952;6.146;2022-08-05T08:45:19;101559.56;;;20.80;100.00
29909;BME280;36247;51.952;6.146;2022-08-05T08:47:45;101567.47;;;20.35;100.00
29909;BME280;36247;51.952;6.146;2022-08-05T08:50:12;101572.78;;;20.38;100.00
29909;BME280;36247;51.952;6.146;2022-08-05T08:52:40;101571.66;;;20.53;100.00
29909;BME280;36247;51.952;6.146;2022-08-05T08:55:06;101578.19;;;20.36;100.00
29909;BME280;36247;51.952;6.146;2022-08-05T08:57:33;101571.81;;;21.00;100.00
29909;BME280;36247;51.952;6.146;2022-08-05T09:02:14;101590.59;;;21.54;100.00
29909;BME280;36247;51.952;6.146;2022-08-05T09:04:39;101585.56;;;21.33;93.79
29909;BME280;36247;51.952;6.146;2022-08-05T09:07:06;101588.25;;;21.79;92.07
29909;BME280;36247;51.952;6.146;2022-08-05T09:09:33;101592.44;;;21.49;90.96
29909;BME280;36247;51.952;6.146;2022-08-05T09:11:59;101592.06;;;21.71;91.81
29909;BME280;36247;51.952;6.146;2022-08-05T09:14:25;101597.59;;;21.61;89.30
29909;BME280;36247;51.952;6.146;2022-08-05T09:16:51;101602.16;;;21.59;92.11
29909;BME280;36247;51.952;6.146;2022-08-05T09:19:17;101600.91;;;21.76;91.04
29909;BME280;36247;51.952;6.146;2022-08-05T09:21:44;101595.81;;;22.04;88.40
29909;BME280;36247;51.952;6.146;2022-08-05T09:24:09;101585.06;;;22.43;87.60
29909;BME280;36247;51.952;6.146;2022-08-05T09:26:37;101585.47;;;22.25;87.03
29909;BME280;36247;51.952;6.146;2022-08-05T09:29:07;101590.44;;;22.45;87.73
29909;BME280;36247;51.952;6.146;2022-08-05T09:31:33;101593.00;;;22.49;86.62
29909;BME280;36247;51.952;6.146;2022-08-05T09:34:04;101606.06;;;21.87;87.42
29909;BME280;36247;51.952;6.146;2022-08-05T09:36:45;101613.56;;;21.24;89.28
29909;BME280;36247;51.952;6.146;2022-08-05T09:39:15;101614.34;;;20.79;90.39
29909;BME280;36247;51.952;6.146;2022-08-05T09:42:02;101619.72;;;20.79;93.32
29909;BME280;36247;51.952;6.146;2022-08-05T09:47:17;101624.72;;;20.44;96.27
29909;BME280;36247;51.952;6.146;2022-08-05T09:49:44;101626.19;;;20.67;95.77
29909;BME280;36247;51.952;6.146;2022-08-05T09:52:23;101627.41;;;20.44;95.57
29909;BME280;36247;51.952;6.146;2022-08-05T09:57:33;101636.84;;;20.75;93.79
29909;BME280;36247;51.952;6.146;2022-08-05T10:00:20;101630.13;;;21.02;94.37
29909;BME280;36247;51.952;6.146;2022-08-05T10:02:50;101632.78;;;21.04;94.55
29909;BME280;36247;51.952;6.146;2022-08-05T10:05:20;101640.16;;;20.92;91.20
29909;BME280;36247;51.952;6.146;2022-08-05T10:07:50;101630.59;;;21.27;91.35
29909;BME280;36247;51.952;6.146;2022-08-05T10:10:19;101627.97;;;23.62;81.20
29909;BME280;36247;51.952;6.146;2022-08-05T10:12:51;101623.75;;;24.44;74.58
29909;BME280;36247;51.952;6.146;2022-08-05T10:18:12;101628.78;;;24.85;75.28
29909;BME280;36247;51.952;6.146;2022-08-05T10:20:44;101617.47;;;24.99;73.24
29909;BME280;36247;51.952;6.146;2022-08-05T10:23:12;101626.38;;;26.05;68.81
29909;BME280;36247;51.952;6.146;2022-08-05T10:25:38;101626.38;;;26.05;69.52
29909;BME280;36247;51.952;6.146;2022-08-05T10:28:06;101625.19;;;26.58;66.17
29909;BME280;36247;51.952;6.146;2022-08-05T10:30:32;101624.38;;;26.78;61.34
29909;BME280;36247;51.952;6.146;2022-08-05T10:32:57;101633.53;;;26.53;62.02
29909;BME280;36247;51.952;6.146;2022-08-05T10:35:25;101636.50;;;24.69;64.48
29909;BME280;36247;51.952;6.146;2022-08-05T10:37:53;101650.84;;;24.15;64.52
29909;BME280;36247;51.952;6.146;2022-08-05T10:40:27;101643.19;;;23.99;64.71
29909;BME280;36247;51.952;6.146;2022-08-05T10:42:58;101654.81;;;23.01;67.87
29909;BME280;36247;51.952;6.146;2022-08-05T10:45:26;101655.34;;;22.40;59.45
29909;BME280;36247;51.952;6.146;2022-08-05T10:47:52;101658.06;;;23.15;56.77
29909;BME280;36247;51.952;6.146;2022-08-05T10:50:18;101655.19;;;23.23;53.69
29909;BME280;36247;51.952;6.146;2022-08-05T10:52:45;101649.41;;;24.62;55.35
29909;BME280;36247;51.952;6.146;2022-08-05T10:55:25;101654.34;;;26.31;43.18
29909;BME280;36247;51.952;6.146;2022-08-05T10:58:10;101658.34;;;25.72;46.15
29909;BME280;36247;51.952;6.146;2022-08-05T11:00:36;101664.47;;;24.71;48.33
29909;BME280;36247;51.952;6.146;2022-08-05T11:05:32;101675.19;;;23.83;51.08
29909;BME280;36247;51.952;6.146;2022-08-05T11:08:04;101673.19;;;23.90;52.94
29909;BME280;36247;51.952;6.146;2022-08-05T11:10:32;101679.75;;;23.47;51.70
29909;BME280;36247;51.952;6.146;2022-08-05T11:12:58;101684.09;;;23.19;49.35
29909;BME280;36247;51.952;6.146;2022-08-05T11:15:29;101682.94;;;23.30;48.83
29909;BME280;36247;51.952;6.146;2022-08-05T11:18:07;101688.50;;;22.86;48.97
29909;BME280;36247;51.952;6.146;2022-08-05T11:20:45;101686.97;;;23.48;51.19
29909;BME280;36247;51.952;6.146;2022-08-05T11:26:06;101690.72;;;25.51;41.57
29909;BME280;36247;51.952;6.146;2022-08-05T11:33:30;101692.28;;;24.46;42.00
29909;BME280;36247;51.952;6.146;2022-08-05T11:36:01;101699.59;;;24.44;44.59
29909;BME280;36247;51.952;6.146;2022-08-05T11:43:54;101696.41;;;25.70;39.86
29909;BME280;36247;51.952;6.146;2022-08-05T11:46:28;101702.25;;;25.04;42.98
29909;BME280;36247;51.952;6.146;2022-08-05T11:48:54;101705.38;;;25.19;39.66
29909;BME280;36247;51.952;6.146;2022-08-05T11:51:21;101690.38;;;26.82;39.32
29909;BME280;36247;51.952;6.146;2022-08-05T11:53:47;101689.63;;;27.84;37.59
29909;BME280;36247;51.952;6.146;2022-08-05T11:56:13;101705.78;;;27.25;34.69
29909;BME280;36247;51.952;6.146;2022-08-05T11:58:41;101711.94;;;26.15;35.98
29909;BME280;36247;51.952;6.146;2022-08-05T12:01:15;101711.72;;;26.45;34.53
29909;BME280;36247;51.952;6.146;2022-08-05T12:03:53;101714.00;;;26.80;32.69
29909;BME280;36247;51.952;6.146;2022-08-05T12:06:21;101723.09;;;25.82;34.87
29909;BME280;36247;51.952;6.146;2022-08-05T12:08:49;101724.63;;;27.52;32.60
29909;BME280;36247;51.952;6.146;2022-08-05T12:11:23;101726.59;;;27.26;33.92
29909;BME280;36247;51.952;6.146;2022-08-05T12:16:18;101741.88;;;25.08;38.82
29909;BME280;36247;51.952;6.146;2022-08-05T12:18:45;101741.41;;;25.50;36.12
29909;BME280;36247;51.952;6.146;2022-08-05T12:21:17;101738.22;;;25.09;35.68
29909;BME280;36247;51.952;6.146;2022-08-05T12:26:32;101752.38;;;24.91;36.41
29909;BME280;36247;51.952;6.146;2022-08-05T12:28:58;101762.91;;;24.40;37.16
29909;BME280;36247;51.952;6.146;2022-08-05T12:31:23;101768.72;;;24.26;37.68
29909;BME280;36247;51.952;6.146;2022-08-05T12:33:49;101766.03;;;23.93;40.46
29909;BME280;36247;51.952;6.146;2022-08-05T12:36:15;101773.66;;;24.10;39.37
29909;BME280;36247;51.952;6.146;2022-08-05T12:38:41;101785.94;;;24.24;37.79
29909;BME280;36247;51.952;6.146;2022-08-05T12:41:11;101769.25;;;24.99;37.28
29909;BME280;36247;51.952;6.146;2022-08-05T12:43:55;101773.94;;;25.50;34.23
29909;BME280;36247;51.952;6.146;2022-08-05T12:46:29;101771.91;;;25.57;33.61
29909;BME280;36247;51.952;6.146;2022-08-05T12:49:15;101792.97;;;24.31;34.07
29909;BME280;36247;51.952;6.146;2022-08-05T12:51:43;101784.63;;;24.70;34.48
29909;BME280;36247;51.952;6.146;2022-08-05T12:54:09;101789.25;;;25.53;34.47
29909;BME280;36247;51.952;6.146;2022-08-05T12:56:40;101790.00;;;25.30;33.84
29909;BME280;36247;51.952;6.146;2022-08-05T12:59:13;101787.31;;;25.57;34.02
29909;BME280;36247;51.952;6.146;2022-08-05T13:01:40;101800.81;;;25.85;33.39
29909;BME280;36247;51.952;6.146;2022-08-05T13:04:06;101793.59;;;25.84;32.46
29909;BME280;36247;51.952;6.146;2022-08-05T13:06:32;101786.72;;;27.20;31.22
29909;BME280;36247;51.952;6.146;2022-08-05T13:09:05;101802.91;;;25.50;33.79
29909;BME280;36247;51.952;6.146;2022-08-05T13:11:30;101815.38;;;24.97;35.71
29909;BME280;36247;51.952;6.146;2022-08-05T13:13:57;101800.81;;;25.31;34.09
29909;BME280;36247;51.952;6.146;2022-08-05T13:16:23;101816.22;;;25.29;33.36
29909;BME280;36247;51.952;6.146;2022-08-05T13:18:53;101821.75;;;24.67;34.80
29909;BME280;36247;51.952;6.146;2022-08-05T13:21:19;101830.78;;;24.01;35.64